Aeroporto :
LOGIN :

Iscrizione | Disclaimer

   EN    FR    IT 

 










Sommario :    VFR   VFR Marginale   IFR   IFR Intensivo   IFR Molto Intensivo
Visibilità : 
Base nubi : 
>= 8 km
>= 3000ft
5 / 8 km
1000 / 3000 ft
1500m / 5 km
500 / 1000 ft
800 / 1500m
200 / 500 ft
< 800m
< 200 ft
Simboli :   Temporali  Nebbia  Neve Forte  Precipitazioni Forti  Vento > 20 kt
SIGMETs :   Varie  Temporali  Ghiacco  Turbolenza  Onda orograficha  Ceneri Vulcaniche







- Altitudine del aeroporto : 821 ft
- Codice IATA : LYS
- Carte del aeroporto


LFLL - Lyon St Exupéry / Satolas

ULTIMO METAR :
  • 231400Z 34012KT CAVOK 21/02 Q1025 NOSIG

METARs OBSOLETI :
  • 231330Z 34013KT CAVOK 20/03 Q1025 NOSIG
  • 231300Z 34012KT CAVOK 19/03 Q1026 NOSIG
  • 231230Z 34012KT CAVOK 19/02 Q1026 NOSIG
  • 231200Z 34008KT 300V010 CAVOK 18/02 Q1026 NOSIG
  • 231130Z 34005KT 310V020 CAVOK 17/05 Q1027 NOSIG

TAF TAF LFLL
Valido dal 23 a 12 ore il 24 a 18 ore UTC


231100Z 2312/2418 VRB02KT CAVOK
BECMG 2312/2314 35012KT
BECMG 2322/2324 VRB02KT
PROB30
TEMPO 2403/2408 4500 BR
BECMG 2409/2411 35012KT
Nessun NOTAM noto per questo aeroporto.



MetMap, La meteo Aeronautica in un colpo d'occhio ! - Copyright ORBIFLY Dicembre 2007 - Disclaimer

ORBIFLY MET'MAP TEAM :

Programmazione e sviluppo : Alexandra Zaïnal
Concezione e sviluppo : Baudouin d'Aumeries
Co-Programmazione e sviluppo : Marc-Olivier Méhu
Supporto tecnico e logistico : Manuel Goepfert
Aiuto per la traduzione : Arnaldo La Scala

Contatto : metmap@orbifly.com




FONTI E CREDITI :

   NOAA